You are not logged in, Click here to log in
機場資訊:ZLXY Welcome to Taiwan Airways 台灣虛擬航空
ICAO: ZLXY Country: 中華人民共和國陕西省咸阳市
Latitude: 34.4371 Longitude: 108.757
Total Arrivals: 10 Total Departures: 9
Latest Arrival: MU2295 (ZUUU-ZLXY)Arthur. Kung Latest Departure: CI562 (ZLXY-ZBAA)Arthur. Kung
Scenery:
METAR : ZLXY 211200Z VRB01MPS 5000 BR OVC070 14/09 Q1018 NOSIG

西安咸陽國際機場